Akebono — JG5644 — position and weather

sailwx.info

Track history (hours):
 
Tides and Currents Weather Stations Pressure Air Temp Water Temp Dewpoint Dewpoint Depression Visibility Wind Speed Wind Dir Waves Ship Positions

Akebono

Last reported at 2016-Sep-28 12:33 UTC. Time now 2016-Sep-28 15:28 UTC.
Position N 35°36' E 140°07'.

Length 33 m; draft 4.4 m.

Type: Tug. MMSI: 431000233.

Date/timePositionNaut miles runAvg speedWind from/ knotsBaromVisibWave heightAir tempDewpointWater temp
2016-Sep-28 12:33N 35°36' E 140°07'0 0.0
2016-Sep-28 03:34N 35°36' E 140°07'0 0.0
2016-Sep-28 02:33N 35°36' E 140°07'0 0.0
2016-Sep-28 01:34N 35°36' E 140°07'0 0.0
2016-Sep-27 23:33N 35°36' E 140°07'0 0.0
2016-Sep-27 19:33N 35°36' E 140°07'0 0.0
2016-Sep-27 14:33N 35°36' E 140°07'0 0.0
2016-Sep-27 13:34N 35°36' E 140°07'0 0.0
2016-Sep-27 10:33N 35°36' E 140°07'10 1.0
2016-Sep-27 00:33N 35°30' E 139°57'10 2.5
2016-Sep-26 20:33N 35°36' E 140°07'0 0.0
2016-Sep-26 19:33N 35°36' E 140°07'0 0.0
2016-Sep-26 15:33N 35°36' E 140°07'0 0.0
2016-Sep-26 13:33N 35°36' E 140°07'0 0.0
2016-Sep-26 11:33N 35°36' E 140°07'0 0.0
2016-Sep-26 08:33N 35°36' E 140°07'0 0.0
2016-Sep-26 02:33N 35°36' E 140°07'0 0.0
2016-Sep-26 01:33N 35°36' E 140°07'0 0.0
2016-Sep-26 00:33N 35°36' E 140°07'7 2.2
2016-Sep-25 21:33N 35°34' E 139°59'7 1.7
2016-Sep-25 17:33N 35°36' E 140°07'0 0.0
2016-Sep-25 16:33N 35°36' E 140°07'0 0.0
2016-Sep-25 15:33N 35°36' E 140°07'0 0.0
2016-Sep-25 14:33N 35°36' E 140°07'0 0.0
2016-Sep-25 12:33N 35°36' E 140°07'0 0.0
2016-Sep-25 11:33N 35°36' E 140°07'0 0.0
2016-Sep-25 10:33N 35°36' E 140°07'0 0.0
2016-Sep-25 09:33N 35°36' E 140°07'0 0.0
2016-Sep-25 07:33N 35°36' E 140°07'0 0.0
2016-Sep-25 04:33N 35°36' E 140°07'12 3.1
2016-Sep-25 00:33N 35°29' E 139°54'12 6.2
2016-Sep-24 22:34N 35°36' E 140°07'0 0.0
2016-Sep-24 21:34N 35°36' E 140°07'0 0.0
2016-Sep-24 19:33N 35°36' E 140°07'0 0.0
2016-Sep-24 18:33N 35°36' E 140°07'0 0.0
2016-Sep-24 17:33N 35°36' E 140°07'0 0.0
2016-Sep-24 16:33N 35°36' E 140°07'0 0.0
2016-Sep-24 14:33N 35°36' E 140°07'0 0.0
2016-Sep-24 12:32N 35°36' E 140°07'0 0.0
2016-Sep-24 10:33N 35°36' E 140°07'0 0.0
2016-Sep-24 09:33N 35°36' E 140°07'7 1.2
2016-Sep-24 03:34N 35°30' E 140°02'1 0.8
2016-Sep-24 02:33N 35°30' E 140°01'1 1.2
2016-Sep-24 01:34N 35°29' E 140°00'0 0.3
2016-Sep-24 00:33N 35°29' E 140°00'9 1.7
2016-Sep-23 19:33N 35°36' E 140°07'0 0.0
2016-Sep-23 17:33N 35°36' E 140°07'0 0.0
2016-Sep-23 16:33N 35°36' E 140°07'0 0.0
2016-Sep-23 15:32N 35°36' E 140°07'0 0.0
2016-Sep-23 13:33N 35°36' E 140°07'0 0.0
2016-Sep-23 09:33N 35°36' E 140°07'1 0.5
2016-Sep-23 06:33N 35°35' E 140°05'1 0.7
2016-Sep-23 04:34N 35°36' E 140°07'0 0.0
2016-Sep-23 03:33N 35°36' E 140°07'0 0.0
2016-Sep-23 02:33N 35°36' E 140°07'0 0.0
2016-Sep-23 01:34N 35°36' E 140°07'0 0.0
2016-Sep-23 00:33N 35°36' E 140°07'7 6.8
2016-Sep-22 23:33N 35°33' E 139°59'1 0.3
2016-Sep-22 20:33N 35°33' E 140°00'6 0.8
2016-Sep-22 12:33N 35°36' E 140°07'4 0.5
2016-Sep-22 04:33N 35°34' E 140°02'4 4.3
2016-Sep-22 03:33N 35°36' E 140°07'10 3.4
2016-Sep-22 00:33N 35°31' E 139°56'0 0.1
2016-Sep-21 23:33N 35°31' E 139°56'3 3.4
2016-Sep-21 22:34N 35°29' E 139°53'13 4.5
2016-Sep-21 19:34N 35°36' E 140°07'0 0.0
2016-Sep-21 16:33N 35°36' E 140°07'0 0.0
2016-Sep-21 09:33N 35°36' E 140°07'0 0.0
2016-Sep-21 08:33N 35°36' E 140°07'0 0.0
2016-Sep-21 05:33N 35°36' E 140°07'0 0.0
2016-Sep-21 03:33N 35°36' E 140°07'4 4.2
2016-Sep-21 02:33N 35°33' E 140°03'4 0.5
2016-Sep-20 17:34N 35°36' E 140°07'0 0.0
2016-Sep-20 14:33N 35°36' E 140°07'0 0.0
2016-Sep-20 13:33N 35°36' E 140°07'8 2.8
2016-Sep-20 10:33N 35°31' E 139°59'5 2.3
2016-Sep-20 08:33N 35°34' E 140°03'4 3.8
2016-Sep-20 07:33N 35°36' E 140°07'0 0.0
2016-Sep-20 06:33N 35°36' E 140°07'0 0.0
2016-Sep-20 02:33N 35°36' E 140°07'0 0.0
2016-Sep-19 23:33N 35°36' E 140°07'0 0.0
2016-Sep-19 19:33N 35°36' E 140°07'0 0.0
2016-Sep-19 18:33N 35°36' E 140°07'0 0.0
2016-Sep-19 16:33N 35°36' E 140°07'0 0.0
2016-Sep-19 14:33N 35°36' E 140°07'0 0.0
2016-Sep-19 13:33N 35°36' E 140°07'0 0.0
2016-Sep-19 12:33N 35°36' E 140°07'0 0.0
2016-Sep-19 11:33N 35°36' E 140°07'0 0.0
2016-Sep-19 09:33N 35°36' E 140°07'2 1.0
2016-Sep-19 07:33N 35°35' E 140°04'5 4.5
2016-Sep-19 06:34N 35°31' E 140°02'6 1.9
2016-Sep-19 03:33N 35°36' E 140°07'0 0.2
2016-Sep-19 02:33N 35°36' E 140°07'0 0.0
2016-Sep-19 00:33N 35°36' E 140°07'0 0.0
2016-Sep-18 19:33N 35°36' E 140°07'0 0.0
2016-Sep-18 15:33N 35°36' E 140°07'0 0.0
2016-Sep-18 14:33N 35°36' E 140°07'  
Track history (hours):
 
Tides and Currents Weather Stations Pressure Air Temp Water Temp Dewpoint Dewpoint Depression Visibility Wind Speed Wind Dir Waves Ship Positions

Akebono

Last reported at 2016-Sep-28 12:33 UTC. Time now 2016-Sep-28 15:28 UTC.
Position N 35°36' E 140°07'.

Length 33 m; draft 4.4 m.

Type: Tug. MMSI: 431000233.

Date/timePositionNaut miles runAvg speedWind from/ knotsBaromVisibWave heightAir tempDewpointWater temp
2016-Sep-28 12:33N 35°36' E 140°07'0 0.0
2016-Sep-28 03:34N 35°36' E 140°07'0 0.0
2016-Sep-28 02:33N 35°36' E 140°07'0 0.0
2016-Sep-28 01:34N 35°36' E 140°07'0 0.0
2016-Sep-27 23:33N 35°36' E 140°07'0 0.0
2016-Sep-27 19:33N 35°36' E 140°07'0 0.0
2016-Sep-27 14:33N 35°36' E 140°07'0 0.0
2016-Sep-27 13:34N 35°36' E 140°07'0 0.0
2016-Sep-27 10:33N 35°36' E 140°07'10 1.0
2016-Sep-27 00:33N 35°30' E 139°57'10 2.5
2016-Sep-26 20:33N 35°36' E 140°07'0 0.0
2016-Sep-26 19:33N 35°36' E 140°07'0 0.0
2016-Sep-26 15:33N 35°36' E 140°07'0 0.0
2016-Sep-26 13:33N 35°36' E 140°07'0 0.0
2016-Sep-26 11:33N 35°36' E 140°07'0 0.0
2016-Sep-26 08:33N 35°36' E 140°07'0 0.0
2016-Sep-26 02:33N 35°36' E 140°07'0 0.0
2016-Sep-26 01:33N 35°36' E 140°07'0 0.0
2016-Sep-26 00:33N 35°36' E 140°07'7 2.2
2016-Sep-25 21:33N 35°34' E 139°59'7 1.7
2016-Sep-25 17:33N 35°36' E 140°07'0 0.0
2016-Sep-25 16:33N 35°36' E 140°07'0 0.0
2016-Sep-25 15:33N 35°36' E 140°07'0 0.0
2016-Sep-25 14:33N 35°36' E 140°07'0 0.0
2016-Sep-25 12:33N 35°36' E 140°07'0 0.0
2016-Sep-25 11:33N 35°36' E 140°07'0 0.0
2016-Sep-25 10:33N 35°36' E 140°07'0 0.0
2016-Sep-25 09:33N 35°36' E 140°07'0 0.0
2016-Sep-25 07:33N 35°36' E 140°07'0 0.0
2016-Sep-25 04:33N 35°36' E 140°07'12 3.1
2016-Sep-25 00:33N 35°29' E 139°54'12 6.2
2016-Sep-24 22:34N 35°36' E 140°07'0 0.0
2016-Sep-24 21:34N 35°36' E 140°07'0 0.0
2016-Sep-24 19:33N 35°36' E 140°07'0 0.0
2016-Sep-24 18:33N 35°36' E 140°07'0 0.0
2016-Sep-24 17:33N 35°36' E 140°07'0 0.0
2016-Sep-24 16:33N 35°36' E 140°07'0 0.0
2016-Sep-24 14:33N 35°36' E 140°07'0 0.0
2016-Sep-24 12:32N 35°36' E 140°07'0 0.0
2016-Sep-24 10:33N 35°36' E 140°07'0 0.0
2016-Sep-24 09:33N 35°36' E 140°07'7 1.2
2016-Sep-24 03:34N 35°30' E 140°02'1 0.8
2016-Sep-24 02:33N 35°30' E 140°01'1 1.2
2016-Sep-24 01:34N 35°29' E 140°00'0 0.3
2016-Sep-24 00:33N 35°29' E 140°00'9 1.7
2016-Sep-23 19:33N 35°36' E 140°07'0 0.0
2016-Sep-23 17:33N 35°36' E 140°07'0 0.0
2016-Sep-23 16:33N 35°36' E 140°07'0 0.0
2016-Sep-23 15:32N 35°36' E 140°07'0 0.0
2016-Sep-23 13:33N 35°36' E 140°07'0 0.0
2016-Sep-23 09:33N 35°36' E 140°07'1 0.5
2016-Sep-23 06:33N 35°35' E 140°05'1 0.7
2016-Sep-23 04:34N 35°36' E 140°07'0 0.0
2016-Sep-23 03:33N 35°36' E 140°07'0 0.0
2016-Sep-23 02:33N 35°36' E 140°07'0 0.0
2016-Sep-23 01:34N 35°36' E 140°07'0 0.0
2016-Sep-23 00:33N 35°36' E 140°07'7 6.8
2016-Sep-22 23:33N 35°33' E 139°59'1 0.3
2016-Sep-22 20:33N 35°33' E 140°00'6 0.8
2016-Sep-22 12:33N 35°36' E 140°07'4 0.5
2016-Sep-22 04:33N 35°34' E 140°02'4 4.3
2016-Sep-22 03:33N 35°36' E 140°07'10 3.4
2016-Sep-22 00:33N 35°31' E 139°56'0 0.1
2016-Sep-21 23:33N 35°31' E 139°56'3 3.4
2016-Sep-21 22:34N 35°29' E 139°53'13 4.5
2016-Sep-21 19:34N 35°36' E 140°07'0 0.0
2016-Sep-21 16:33N 35°36' E 140°07'0 0.0
2016-Sep-21 09:33N 35°36' E 140°07'0 0.0
2016-Sep-21 08:33N 35°36' E 140°07'0 0.0
2016-Sep-21 05:33N 35°36' E 140°07'0 0.0
2016-Sep-21 03:33N 35°36' E 140°07'4 4.2
2016-Sep-21 02:33N 35°33' E 140°03'4 0.5
2016-Sep-20 17:34N 35°36' E 140°07'0 0.0
2016-Sep-20 14:33N 35°36' E 140°07'0 0.0
2016-Sep-20 13:33N 35°36' E 140°07'8 2.8
2016-Sep-20 10:33N 35°31' E 139°59'5 2.3
2016-Sep-20 08:33N 35°34' E 140°03'4 3.8
2016-Sep-20 07:33N 35°36' E 140°07'0 0.0
2016-Sep-20 06:33N 35°36' E 140°07'0 0.0
2016-Sep-20 02:33N 35°36' E 140°07'0 0.0
2016-Sep-19 23:33N 35°36' E 140°07'0 0.0
2016-Sep-19 19:33N 35°36' E 140°07'0 0.0
2016-Sep-19 18:33N 35°36' E 140°07'0 0.0
2016-Sep-19 16:33N 35°36' E 140°07'0 0.0
2016-Sep-19 14:33N 35°36' E 140°07'0 0.0
2016-Sep-19 13:33N 35°36' E 140°07'0 0.0
2016-Sep-19 12:33N 35°36' E 140°07'0 0.0
2016-Sep-19 11:33N 35°36' E 140°07'0 0.0
2016-Sep-19 09:33N 35°36' E 140°07'2 1.0
2016-Sep-19 07:33N 35°35' E 140°04'5 4.5
2016-Sep-19 06:34N 35°31' E 140°02'6 1.9
2016-Sep-19 03:33N 35°36' E 140°07'0 0.2
2016-Sep-19 02:33N 35°36' E 140°07'0 0.0
2016-Sep-19 00:33N 35°36' E 140°07'0 0.0
2016-Sep-18 19:33N 35°36' E 140°07'0 0.0
2016-Sep-18 15:33N 35°36' E 140°07'0 0.0
2016-Sep-18 14:33N 35°36' E 140°07'  

Dump ship's entire track history